sensor_id;sensor_type;location;lat;lon;timestamp;P1;durP1;ratioP1;P2;durP2;ratioP2
78290;SDS011;67543;45.494;9.100;2023-04-03T04:59:21;16.00;;;8.45;;
78290;SDS011;67543;45.494;9.100;2023-04-03T05:04:12;13.73;;;8.50;;
78290;SDS011;67543;45.494;9.100;2023-04-03T05:06:40;12.32;;;8.38;;
78290;SDS011;67543;45.494;9.100;2023-04-03T05:09:05;11.80;;;8.55;;
78290;SDS011;67543;45.494;9.100;2023-04-03T05:11:31;13.75;;;8.13;;
78290;SDS011;67543;45.494;9.100;2023-04-03T05:13:56;12.70;;;8.00;;
78290;SDS011;67543;45.494;9.100;2023-04-03T05:16:22;12.85;;;8.00;;
78290;SDS011;67543;45.494;9.100;2023-04-03T05:18:47;10.65;;;8.27;;
78290;SDS011;67543;45.494;9.100;2023-04-03T05:21:12;13.25;;;8.02;;
78290;SDS011;67543;45.494;9.100;2023-04-03T05:23:38;10.93;;;7.60;;
78290;SDS011;67543;45.494;9.100;2023-04-03T05:26:03;13.25;;;8.95;;
78290;SDS011;67543;45.494;9.100;2023-04-03T05:28:29;11.18;;;8.50;;
78290;SDS011;67543;45.494;9.100;2023-04-03T05:30:55;10.63;;;7.57;;
78290;SDS011;67543;45.494;9.100;2023-04-03T05:33:22;14.00;;;8.27;;
78290;SDS011;67543;45.494;9.100;2023-04-03T05:35:48;14.77;;;8.43;;
78290;SDS011;67543;45.494;9.100;2023-04-03T05:38:13;13.18;;;7.57;;
78290;SDS011;67543;45.494;9.100;2023-04-03T05:40:38;10.52;;;8.35;;
78290;SDS011;67543;45.494;9.100;2023-04-03T05:43:04;11.50;;;8.20;;
78290;SDS011;67543;45.494;9.100;2023-04-03T05:45:29;13.73;;;7.53;;
78290;SDS011;67543;45.494;9.100;2023-04-03T05:47:55;11.75;;;8.07;;
78290;SDS011;67543;45.494;9.100;2023-04-03T05:50:20;14.38;;;9.07;;
78290;SDS011;67543;45.494;9.100;2023-04-03T05:52:46;13.52;;;9.18;;
78290;SDS011;67543;45.494;9.100;2023-04-03T05:55:13;12.63;;;9.00;;
78290;SDS011;67543;45.494;9.100;2023-04-03T05:57:39;15.02;;;7.75;;
78290;SDS011;67543;45.494;9.100;2023-04-03T06:00:05;12.85;;;8.43;;
78290;SDS011;67543;45.494;9.100;2023-04-03T06:02:32;13.60;;;7.75;;
78290;SDS011;67543;45.494;9.100;2023-04-03T06:04:57;12.93;;;7.85;;
78290;SDS011;67543;45.494;9.100;2023-04-03T06:07:23;13.95;;;8.73;;
78290;SDS011;67543;45.494;9.100;2023-04-03T06:09:53;15.38;;;7.60;;
78290;SDS011;67543;45.494;9.100;2023-04-03T06:12:20;15.15;;;7.70;;
78290;SDS011;67543;45.494;9.100;2023-04-03T06:14:46;16.63;;;8.25;;
78290;SDS011;67543;45.494;9.100;2023-04-03T06:17:12;9.38;;;7.22;;
78290;SDS011;67543;45.494;9.100;2023-04-03T06:19:38;17.15;;;8.43;;
78290;SDS011;67543;45.494;9.100;2023-04-03T06:22:03;11.32;;;7.18;;
78290;SDS011;67543;45.494;9.100;2023-04-03T06:24:30;13.55;;;7.60;;
78290;SDS011;67543;45.494;9.100;2023-04-03T06:26:56;13.35;;;8.32;;
78290;SDS011;67543;45.494;9.100;2023-04-03T06:29:22;12.18;;;7.07;;
78290;SDS011;67543;45.494;9.100;2023-04-03T06:31:48;12.80;;;7.63;;
78290;SDS011;67543;45.494;9.100;2023-04-03T06:34:14;18.95;;;8.25;;
78290;SDS011;67543;45.494;9.100;2023-04-03T06:36:40;13.82;;;7.18;;
78290;SDS011;67543;45.494;9.100;2023-04-03T06:39:06;12.13;;;7.65;;
78290;SDS011;67543;45.494;9.100;2023-04-03T06:41:32;21.48;;;10.10;;
78290;SDS011;67543;45.494;9.100;2023-04-03T06:43:57;12.27;;;8.93;;
78290;SDS011;67543;45.494;9.100;2023-04-03T06:46:24;13.65;;;7.95;;
78290;SDS011;67543;45.494;9.100;2023-04-03T06:48:50;14.43;;;8.07;;
78290;SDS011;67543;45.494;9.100;2023-04-03T06:51:20;17.23;;;8.75;;
78290;SDS011;67543;45.494;9.100;2023-04-03T06:53:49;15.45;;;8.10;;
78290;SDS011;67543;45.494;9.100;2023-04-03T06:56:16;14.73;;;8.38;;
78290;SDS011;67543;45.494;9.100;2023-04-03T06:58:42;12.40;;;8.88;;
78290;SDS011;67543;45.494;9.100;2023-04-03T07:01:08;12.73;;;8.93;;
78290;SDS011;67543;45.494;9.100;2023-04-03T07:03:36;14.25;;;9.45;;
78290;SDS011;67543;45.494;9.100;2023-04-03T07:06:02;12.95;;;9.57;;
78290;SDS011;67543;45.494;9.100;2023-04-03T07:08:28;10.93;;;8.43;;
78290;SDS011;67543;45.494;9.100;2023-04-03T07:10:54;15.30;;;8.50;;
78290;SDS011;67543;45.494;9.100;2023-04-03T07:13:19;11.20;;;8.57;;
78290;SDS011;67543;45.494;9.100;2023-04-03T07:15:45;8.70;;;5.75;;
78290;SDS011;67543;45.494;9.100;2023-04-03T07:18:10;10.50;;;5.55;;
78290;SDS011;67543;45.494;9.100;2023-04-03T07:20:36;8.38;;;6.13;;
78290;SDS011;67543;45.494;9.100;2023-04-03T07:23:01;7.80;;;5.40;;
78290;SDS011;67543;45.494;9.100;2023-04-03T07:25:27;8.75;;;5.70;;
78290;SDS011;67543;45.494;9.100;2023-04-03T07:27:53;9.63;;;5.72;;
78290;SDS011;67543;45.494;9.100;2023-04-03T07:30:22;8.60;;;4.90;;
78290;SDS011;67543;45.494;9.100;2023-04-03T07:32:48;8.68;;;5.25;;
78290;SDS011;67543;45.494;9.100;2023-04-03T07:35:13;5.43;;;4.45;;
78290;SDS011;67543;45.494;9.100;2023-04-03T07:37:39;7.25;;;4.35;;
78290;SDS011;67543;45.494;9.100;2023-04-03T07:40:05;7.68;;;4.57;;
78290;SDS011;67543;45.494;9.100;2023-04-03T07:42:31;6.75;;;3.60;;
78290;SDS011;67543;45.494;9.100;2023-04-03T07:44:57;5.78;;;4.22;;
78290;SDS011;67543;45.494;9.100;2023-04-03T07:47:22;7.25;;;4.88;;
78290;SDS011;67543;45.494;9.100;2023-04-03T07:49:47;5.82;;;4.50;;
78290;SDS011;67543;45.494;9.100;2023-04-03T07:52:13;9.68;;;4.68;;
78290;SDS011;67543;45.494;9.100;2023-04-03T07:54:40;10.75;;;5.32;;
78290;SDS011;67543;45.494;9.100;2023-04-03T07:57:06;7.28;;;5.47;;
78290;SDS011;67543;45.494;9.100;2023-04-03T07:59:32;8.32;;;5.15;;
78290;SDS011;67543;45.494;9.100;2023-04-03T08:01:58;11.60;;;5.50;;
78290;SDS011;67543;45.494;9.100;2023-04-03T08:04:24;7.28;;;4.45;;
78290;SDS011;67543;45.494;9.100;2023-04-03T08:06:50;6.13;;;5.03;;
78290;SDS011;67543;45.494;9.100;2023-04-03T08:09:16;7.57;;;5.05;;
78290;SDS011;67543;45.494;9.100;2023-04-03T08:11:41;7.70;;;4.93;;
78290;SDS011;67543;45.494;9.100;2023-04-03T08:14:07;7.32;;;4.47;;
78290;SDS011;67543;45.494;9.100;2023-04-03T08:16:33;7.80;;;4.93;;
78290;SDS011;67543;45.494;9.100;2023-04-03T08:18:58;12.70;;;6.03;;
78290;SDS011;67543;45.494;9.100;2023-04-03T08:21:24;7.18;;;4.57;;
78290;SDS011;67543;45.494;9.100;2023-04-03T08:23:50;6.15;;;3.90;;
78290;SDS011;67543;45.494;9.100;2023-04-03T08:26:17;7.25;;;3.80;;
78290;SDS011;67543;45.494;9.100;2023-04-03T08:28:45;6.95;;;5.05;;
78290;SDS011;67543;45.494;9.100;2023-04-03T08:31:11;7.30;;;4.47;;
78290;SDS011;67543;45.494;9.100;2023-04-03T08:33:39;5.40;;;3.63;;
78290;SDS011;67543;45.494;9.100;2023-04-03T08:36:05;7.15;;;4.25;;
78290;SDS011;67543;45.494;9.100;2023-04-03T08:38:33;9.77;;;3.88;;
78290;SDS011;67543;45.494;9.100;2023-04-03T08:46:13;5.07;;;3.58;;
78290;SDS011;67543;45.494;9.100;2023-04-03T08:48:41;4.97;;;4.35;;
78290;SDS011;67543;45.494;9.100;2023-04-03T08:51:14;5.85;;;3.90;;
78290;SDS011;67543;45.494;9.100;2023-04-03T08:53:43;6.13;;;3.95;;
78290;SDS011;67543;45.494;9.100;2023-04-03T08:56:10;8.32;;;4.28;;
78290;SDS011;67543;45.494;9.100;2023-04-03T08:58:56;5.90;;;4.18;;
78290;SDS011;67543;45.494;9.100;2023-04-03T09:01:34;6.90;;;4.65;;
78290;SDS011;67543;45.494;9.100;2023-04-03T09:04:01;8.13;;;4.78;;
78290;SDS011;67543;45.494;9.100;2023-04-03T09:06:31;7.65;;;4.57;;
78290;SDS011;67543;45.494;9.100;2023-04-03T09:23:33;4.93;;;3.30;;
78290;SDS011;67543;45.494;9.100;2023-04-03T09:26:06;4.50;;;3.90;;
78290;SDS011;67543;45.494;9.100;2023-04-03T09:28:37;5.97;;;3.70;;
78290;SDS011;67543;45.494;9.100;2023-04-03T09:31:11;5.35;;;4.53;;
78290;SDS011;67543;45.494;9.100;2023-04-03T09:33:42;8.27;;;3.90;;
78290;SDS011;67543;45.494;9.100;2023-04-03T09:36:07;5.55;;;4.22;;
78290;SDS011;67543;45.494;9.100;2023-04-03T09:38:32;5.40;;;3.05;;
78290;SDS011;67543;45.494;9.100;2023-04-03T09:41:04;6.57;;;4.07;;
78290;SDS011;67543;45.494;9.100;2023-04-03T09:43:32;7.60;;;4.65;;
78290;SDS011;67543;45.494;9.100;2023-04-03T09:48:55;6.70;;;4.32;;
78290;SDS011;67543;45.494;9.100;2023-04-03T09:51:24;4.85;;;3.58;;
78290;SDS011;67543;45.494;9.100;2023-04-03T09:53:52;9.30;;;4.28;;
78290;SDS011;67543;45.494;9.100;2023-04-03T09:56:19;6.35;;;3.67;;
78290;SDS011;67543;45.494;9.100;2023-04-03T09:58:51;6.20;;;4.25;;
78290;SDS011;67543;45.494;9.100;2023-04-03T10:01:27;4.95;;;3.78;;
78290;SDS011;67543;45.494;9.100;2023-04-03T10:06:44;5.63;;;3.92;;
78290;SDS011;67543;45.494;9.100;2023-04-03T10:09:30;4.97;;;3.97;;
78290;SDS011;67543;45.494;9.100;2023-04-03T10:12:00;5.05;;;4.00;;
78290;SDS011;67543;45.494;9.100;2023-04-03T10:14:39;4.03;;;3.20;;
78290;SDS011;67543;45.494;9.100;2023-04-03T10:17:20;5.35;;;3.63;;
78290;SDS011;67543;45.494;9.100;2023-04-03T10:20:02;5.40;;;3.58;;
78290;SDS011;67543;45.494;9.100;2023-04-03T10:28:12;4.22;;;3.38;;
78290;SDS011;67543;45.494;9.100;2023-04-03T10:31:22;4.28;;;3.10;;
78290;SDS011;67543;45.494;9.100;2023-04-03T10:34:21;4.80;;;3.53;;
78290;SDS011;67543;45.494;9.100;2023-04-03T10:36:52;5.43;;;3.97;;
78290;SDS011;67543;45.494;9.100;2023-04-03T10:42:13;5.40;;;3.03;;
78290;SDS011;67543;45.494;9.100;2023-04-03T10:45:30;5.28;;;3.65;;
78290;SDS011;67543;45.494;9.100;2023-04-03T10:57:55;6.25;;;3.40;;
78290;SDS011;67543;45.494;9.100;2023-04-03T11:00:57;3.20;;;2.40;;
78290;SDS011;67543;45.494;9.100;2023-04-03T11:03:24;5.00;;;3.53;;
78290;SDS011;67543;45.494;9.100;2023-04-03T11:05:56;6.03;;;3.42;;
78290;SDS011;67543;45.494;9.100;2023-04-03T11:10:51;3.80;;;3.40;;
78290;SDS011;67543;45.494;9.100;2023-04-03T11:13:21;4.30;;;3.35;;
78290;SDS011;67543;45.494;9.100;2023-04-03T11:15:51;8.05;;;3.63;;
78290;SDS011;67543;45.494;9.100;2023-04-03T11:19:01;8.63;;;3.03;;
78290;SDS011;67543;45.494;9.100;2023-04-03T11:21:26;5.40;;;3.00;;
78290;SDS011;67543;45.494;9.100;2023-04-03T11:26:22;3.50;;;3.10;;
78290;SDS011;67543;45.494;9.100;2023-04-03T11:28:55;6.63;;;3.38;;
78290;SDS011;67543;45.494;9.100;2023-04-03T11:34:17;4.80;;;3.00;;
78290;SDS011;67543;45.494;9.100;2023-04-03T11:37:10;4.10;;;2.80;;
78290;SDS011;67543;45.494;9.100;2023-04-03T11:39:38;4.20;;;3.60;;
78290;SDS011;67543;45.494;9.100;2023-04-03T11:44:51;5.53;;;3.53;;
78290;SDS011;67543;45.494;9.100;2023-04-03T11:47:55;5.38;;;3.47;;
78290;SDS011;67543;45.494;9.100;2023-04-03T11:53:24;3.97;;;3.27;;
78290;SDS011;67543;45.494;9.100;2023-04-03T11:55:53;3.33;;;2.88;;
78290;SDS011;67543;45.494;9.100;2023-04-03T12:13:33;4.40;;;3.53;;
78290;SDS011;67543;45.494;9.100;2023-04-03T12:15:59;5.75;;;3.15;;
78290;SDS011;67543;45.494;9.100;2023-04-03T12:24:22;4.65;;;3.08;;
78290;SDS011;67543;45.494;9.100;2023-04-03T12:37:34;4.75;;;3.28;;
78290;SDS011;67543;45.494;9.100;2023-04-03T12:40:15;2.38;;;2.10;;
78290;SDS011;67543;45.494;9.100;2023-04-03T12:45:27;4.80;;;2.65;;
78290;SDS011;67543;45.494;9.100;2023-04-03T12:47:53;5.78;;;2.65;;
78290;SDS011;67543;45.494;9.100;2023-04-03T12:53:12;3.88;;;2.30;;
78290;SDS011;67543;45.494;9.100;2023-04-03T12:58:17;3.72;;;2.40;;
78290;SDS011;67543;45.494;9.100;2023-04-03T13:00:48;2.88;;;1.90;;
78290;SDS011;67543;45.494;9.100;2023-04-03T13:03:24;4.07;;;2.10;;
78290;SDS011;67543;45.494;9.100;2023-04-03T13:05:55;4.28;;;2.20;;
78290;SDS011;67543;45.494;9.100;2023-04-03T13:08:24;3.15;;;2.40;;
78290;SDS011;67543;45.494;9.100;2023-04-03T13:10:58;2.60;;;2.25;;
78290;SDS011;67543;45.494;9.100;2023-04-03T13:13:26;3.25;;;2.38;;
78290;SDS011;67543;45.494;9.100;2023-04-03T13:15:52;5.65;;;2.13;;
78290;SDS011;67543;45.494;9.100;2023-04-03T13:21:17;2.80;;;2.45;;
78290;SDS011;67543;45.494;9.100;2023-04-03T13:23:46;3.33;;;2.97;;
78290;SDS011;67543;45.494;9.100;2023-04-03T13:26:15;3.75;;;2.00;;
78290;SDS011;67543;45.494;9.100;2023-04-03T13:28:41;3.78;;;2.72;;
78290;SDS011;67543;45.494;9.100;2023-04-03T13:33:56;4.65;;;2.08;;
78290;SDS011;67543;45.494;9.100;2023-04-03T13:36:35;5.57;;;2.33;;
78290;SDS011;67543;45.494;9.100;2023-04-03T13:41:41;4.32;;;2.08;;
78290;SDS011;67543;45.494;9.100;2023-04-03T13:46:42;2.97;;;1.90;;
78290;SDS011;67543;45.494;9.100;2023-04-03T13:51:55;2.40;;;2.00;;
78290;SDS011;67543;45.494;9.100;2023-04-03T13:54:28;2.30;;;2.00;;
78290;SDS011;67543;45.494;9.100;2023-04-03T13:56:58;3.47;;;1.77;;
78290;SDS011;67543;45.494;9.100;2023-04-03T14:04:29;3.92;;;2.15;;
78290;SDS011;67543;45.494;9.100;2023-04-03T14:06:56;4.57;;;2.17;;
78290;SDS011;67543;45.494;9.100;2023-04-03T14:09:22;3.45;;;1.92;;
78290;SDS011;67543;45.494;9.100;2023-04-03T14:11:49;3.63;;;2.20;;
78290;SDS011;67543;45.494;9.100;2023-04-03T14:14:21;3.58;;;2.25;;
78290;SDS011;67543;45.494;9.100;2023-04-03T14:19:26;3.75;;;2.08;;
78290;SDS011;67543;45.494;9.100;2023-04-03T14:21:57;3.80;;;2.03;;
78290;SDS011;67543;45.494;9.100;2023-04-03T14:24:23;4.38;;;1.63;;
78290;SDS011;67543;45.494;9.100;2023-04-03T14:26:49;3.55;;;2.08;;
78290;SDS011;67543;45.494;9.100;2023-04-03T14:29:16;2.47;;;1.80;;
78290;SDS011;67543;45.494;9.100;2023-04-03T14:31:42;2.38;;;2.05;;
78290;SDS011;67543;45.494;9.100;2023-04-03T14:34:09;3.55;;;2.45;;
78290;SDS011;67543;45.494;9.100;2023-04-03T14:36:36;3.40;;;2.40;;
78290;SDS011;67543;45.494;9.100;2023-04-03T14:39:02;3.85;;;2.20;;
78290;SDS011;67543;45.494;9.100;2023-04-03T14:41:28;2.35;;;1.75;;
78290;SDS011;67543;45.494;9.100;2023-04-03T14:43:54;3.50;;;1.88;;
78290;SDS011;67543;45.494;9.100;2023-04-03T14:48:59;8.38;;;2.15;;
78290;SDS011;67543;45.494;9.100;2023-04-03T14:51:25;2.45;;;1.85;;
78290;SDS011;67543;45.494;9.100;2023-04-03T14:53:51;6.90;;;2.17;;
78290;SDS011;67543;45.494;9.100;2023-04-03T14:56:21;2.10;;;1.80;;
78290;SDS011;67543;45.494;9.100;2023-04-03T14:58:49;5.15;;;2.08;;
78290;SDS011;67543;45.494;9.100;2023-04-03T15:01:17;4.50;;;1.80;;
78290;SDS011;67543;45.494;9.100;2023-04-03T15:03:43;2.70;;;2.00;;
78290;SDS011;67543;45.494;9.100;2023-04-03T15:06:10;4.28;;;2.30;;
78290;SDS011;67543;45.494;9.100;2023-04-03T15:08:37;2.63;;;2.10;;
78290;SDS011;67543;45.494;9.100;2023-04-03T15:11:02;7.53;;;2.17;;
78290;SDS011;67543;45.494;9.100;2023-04-03T15:13:27;2.63;;;2.42;;
78290;SDS011;67543;45.494;9.100;2023-04-03T15:15:53;4.03;;;2.28;;
78290;SDS011;67543;45.494;9.100;2023-04-03T15:18:22;5.13;;;2.25;;
78290;SDS011;67543;45.494;9.100;2023-04-03T15:20:53;3.30;;;1.92;;
78290;SDS011;67543;45.494;9.100;2023-04-03T15:23:19;2.83;;;1.92;;
78290;SDS011;67543;45.494;9.100;2023-04-03T15:25:46;2.28;;;1.90;;
78290;SDS011;67543;45.494;9.100;2023-04-03T15:28:23;4.22;;;2.17;;
78290;SDS011;67543;45.494;9.100;2023-04-03T15:30:53;8.98;;;1.90;;
78290;SDS011;67543;45.494;9.100;2023-04-03T15:33:18;4.00;;;2.53;;
78290;SDS011;67543;45.494;9.100;2023-04-03T15:35:44;7.20;;;2.30;;
78290;SDS011;67543;45.494;9.100;2023-04-03T15:38:09;3.30;;;2.25;;
78290;SDS011;67543;45.494;9.100;2023-04-03T15:40:35;2.85;;;2.25;;
78290;SDS011;67543;45.494;9.100;2023-04-03T15:43:01;6.15;;;2.65;;
78290;SDS011;67543;45.494;9.100;2023-04-03T15:45:28;2.67;;;2.00;;
78290;SDS011;67543;45.494;9.100;2023-04-03T15:47:54;5.30;;;2.65;;
78290;SDS011;67543;45.494;9.100;2023-04-03T15:50:20;10.75;;;2.63;;
78290;SDS011;67543;45.494;9.100;2023-04-03T15:52:47;3.25;;;2.03;;
78290;SDS011;67543;45.494;9.100;2023-04-03T15:55:13;4.75;;;2.70;;
78290;SDS011;67543;45.494;9.100;2023-04-03T15:57:42;2.97;;;1.75;;
78290;SDS011;67543;45.494;9.100;2023-04-03T16:00:07;7.53;;;2.30;;
78290;SDS011;67543;45.494;9.100;2023-04-03T16:02:33;4.40;;;2.20;;
78290;SDS011;67543;45.494;9.100;2023-04-03T16:04:58;4.55;;;1.67;;
78290;SDS011;67543;45.494;9.100;2023-04-03T16:07:24;4.55;;;3.00;;
78290;SDS011;67543;45.494;9.100;2023-04-03T16:09:49;4.95;;;2.40;;
78290;SDS011;67543;45.494;9.100;2023-04-03T16:12:15;5.93;;;2.40;;
78290;SDS011;67543;45.494;9.100;2023-04-03T16:14:40;3.17;;;2.30;;
78290;SDS011;67543;45.494;9.100;2023-04-03T16:17:06;4.70;;;2.05;;
78290;SDS011;67543;45.494;9.100;2023-04-03T16:19:31;5.70;;;2.63;;
78290;SDS011;67543;45.494;9.100;2023-04-03T16:21:56;3.03;;;1.77;;
78290;SDS011;67543;45.494;9.100;2023-04-03T16:24:22;7.55;;;2.33;;
78290;SDS011;67543;45.494;9.100;2023-04-03T16:26:48;9.45;;;2.75;;
78290;SDS011;67543;45.494;9.100;2023-04-03T16:29:13;3.40;;;2.20;;
78290;SDS011;67543;45.494;9.100;2023-04-03T16:31:38;3.15;;;2.00;;
78290;SDS011;67543;45.494;9.100;2023-04-03T16:34:04;5.82;;;2.13;;
78290;SDS011;67543;45.494;9.100;2023-04-03T16:36:29;4.80;;;2.40;;
78290;SDS011;67543;45.494;9.100;2023-04-03T16:38:54;6.35;;;2.50;;
78290;SDS011;67543;45.494;9.100;2023-04-03T16:41:20;6.47;;;2.03;;
78290;SDS011;67543;45.494;9.100;2023-04-03T16:43:45;5.50;;;1.40;;
78290;SDS011;67543;45.494;9.100;2023-04-03T16:46:10;4.32;;;1.95;;
78290;SDS011;67543;45.494;9.100;2023-04-03T16:48:36;4.88;;;2.42;;
78290;SDS011;67543;45.494;9.100;2023-04-03T16:51:01;6.57;;;2.20;;
78290;SDS011;67543;45.494;9.100;2023-04-03T16:53:27;3.85;;;2.67;;
78290;SDS011;67543;45.494;9.100;2023-04-03T16:55:53;3.53;;;2.38;;
78290;SDS011;67543;45.494;9.100;2023-04-03T16:58:21;7.07;;;2.40;;
78290;SDS011;67543;45.494;9.100;2023-04-03T17:00:46;4.55;;;2.25;;
78290;SDS011;67543;45.494;9.100;2023-04-03T17:03:12;4.57;;;1.80;;
78290;SDS011;67543;45.494;9.100;2023-04-03T17:05:37;3.85;;;2.00;;
78290;SDS011;67543;45.494;9.100;2023-04-03T17:08:03;3.38;;;1.98;;
78290;SDS011;67543;45.494;9.100;2023-04-03T17:10:28;3.67;;;1.88;;
78290;SDS011;67543;45.494;9.100;2023-04-03T17:12:54;3.17;;;1.77;;
78290;SDS011;67543;45.494;9.100;2023-04-03T17:15:19;6.75;;;1.92;;
78290;SDS011;67543;45.494;9.100;2023-04-03T17:17:46;4.07;;;1.70;;
78290;SDS011;67543;45.494;9.100;2023-04-03T17:20:12;3.95;;;1.88;;
78290;SDS011;67543;45.494;9.100;2023-04-03T17:22:37;2.95;;;2.03;;
78290;SDS011;67543;45.494;9.100;2023-04-03T17:25:03;6.25;;;2.20;;
78290;SDS011;67543;45.494;9.100;2023-04-03T17:27:29;3.15;;;2.10;;
78290;SDS011;67543;45.494;9.100;2023-04-03T17:29:54;4.45;;;2.42;;
78290;SDS011;67543;45.494;9.100;2023-04-03T17:32:20;5.25;;;1.70;;
78290;SDS011;67543;45.494;9.100;2023-04-03T17:34:45;6.82;;;1.90;;
78290;SDS011;67543;45.494;9.100;2023-04-03T17:37:11;4.57;;;2.20;;
78290;SDS011;67543;45.494;9.100;2023-04-03T17:39:37;3.67;;;1.25;;
78290;SDS011;67543;45.494;9.100;2023-04-03T17:42:02;5.78;;;2.20;;
78290;SDS011;67543;45.494;9.100;2023-04-03T17:44:28;3.40;;;2.03;;
78290;SDS011;67543;45.494;9.100;2023-04-03T17:46:53;3.78;;;1.45;;
78290;SDS011;67543;45.494;9.100;2023-04-03T17:49:19;3.78;;;1.80;;
78290;SDS011;67543;45.494;9.100;2023-04-03T17:51:46;8.60;;;2.03;;
78290;SDS011;67543;45.494;9.100;2023-04-03T17:54:15;4.53;;;2.10;;
78290;SDS011;67543;45.494;9.100;2023-04-03T17:56:40;4.40;;;1.65;;
78290;SDS011;67543;45.494;9.100;2023-04-03T17:59:11;5.75;;;1.92;;
78290;SDS011;67543;45.494;9.100;2023-04-03T18:01:37;3.40;;;1.67;;
78290;SDS011;67543;45.494;9.100;2023-04-03T18:04:03;2.95;;;1.70;;
78290;SDS011;67543;45.494;9.100;2023-04-03T18:06:30;6.07;;;1.77;;
78290;SDS011;67543;45.494;9.100;2023-04-03T18:09:03;5.97;;;1.73;;
78290;SDS011;67543;45.494;9.100;2023-04-03T18:11:30;3.35;;;1.95;;
78290;SDS011;67543;45.494;9.100;2023-04-03T18:13:56;5.75;;;2.80;;
78290;SDS011;67543;45.494;9.100;2023-04-03T18:16:24;2.85;;;1.85;;
78290;SDS011;67543;45.494;9.100;2023-04-03T18:18:49;5.18;;;2.03;;
78290;SDS011;67543;45.494;9.100;2023-04-03T18:21:15;6.07;;;2.00;;
78290;SDS011;67543;45.494;9.100;2023-04-03T18:23:42;3.85;;;1.60;;
78290;SDS011;67543;45.494;9.100;2023-04-03T18:26:12;7.00;;;1.60;;
78290;SDS011;67543;45.494;9.100;2023-04-03T18:28:38;4.80;;;1.92;;
78290;SDS011;67543;45.494;9.100;2023-04-03T18:31:04;3.60;;;1.90;;
78290;SDS011;67543;45.494;9.100;2023-04-03T18:33:30;2.58;;;2.28;;
78290;SDS011;67543;45.494;9.100;2023-04-03T18:35:55;4.35;;;1.63;;
78290;SDS011;67543;45.494;9.100;2023-04-03T18:38:21;4.78;;;2.05;;
78290;SDS011;67543;45.494;9.100;2023-04-03T18:40:46;5.22;;;2.15;;
78290;SDS011;67543;45.494;9.100;2023-04-03T18:43:12;2.72;;;2.53;;
78290;SDS011;67543;45.494;9.100;2023-04-03T18:45:38;3.53;;;2.63;;
78290;SDS011;67543;45.494;9.100;2023-04-03T18:48:03;11.05;;;2.00;;
78290;SDS011;67543;45.494;9.100;2023-04-03T18:50:29;4.22;;;1.85;;
78290;SDS011;67543;45.494;9.100;2023-04-03T18:52:54;3.08;;;2.03;;
78290;SDS011;67543;45.494;9.100;2023-04-03T18:55:20;5.43;;;1.90;;
78290;SDS011;67543;45.494;9.100;2023-04-03T18:57:46;4.82;;;1.95;;
78290;SDS011;67543;45.494;9.100;2023-04-03T19:00:12;3.67;;;1.63;;
78290;SDS011;67543;45.494;9.100;2023-04-03T19:02:38;3.75;;;1.70;;
78290;SDS011;67543;45.494;9.100;2023-04-03T19:05:04;3.85;;;2.30;;
78290;SDS011;67543;45.494;9.100;2023-04-03T19:07:31;8.20;;;2.42;;
78290;SDS011;67543;45.494;9.100;2023-04-03T19:09:57;3.38;;;1.55;;
78290;SDS011;67543;45.494;9.100;2023-04-03T19:12:22;4.90;;;2.63;;
78290;SDS011;67543;45.494;9.100;2023-04-03T19:14:47;6.57;;;2.83;;
78290;SDS011;67543;45.494;9.100;2023-04-03T19:17:13;5.07;;;1.60;;
78290;SDS011;67543;45.494;9.100;2023-04-03T19:19:38;5.40;;;2.30;;
78290;SDS011;67543;45.494;9.100;2023-04-03T19:22:04;8.60;;;2.15;;
78290;SDS011;67543;45.494;9.100;2023-04-03T19:24:31;3.97;;;1.90;;
78290;SDS011;67543;45.494;9.100;2023-04-03T19:26:57;1.92;;;1.10;;
78290;SDS011;67543;45.494;9.100;2023-04-03T19:29:22;3.53;;;1.83;;
78290;SDS011;67543;45.494;9.100;2023-04-03T19:31:48;2.08;;;1.30;;
78290;SDS011;67543;45.494;9.100;2023-04-03T19:34:13;8.68;;;2.10;;
78290;SDS011;67543;45.494;9.100;2023-04-03T19:36:38;4.78;;;2.03;;
78290;SDS011;67543;45.494;9.100;2023-04-03T19:39:04;2.50;;;1.65;;
78290;SDS011;67543;45.494;9.100;2023-04-03T19:41:32;2.25;;;1.23;;
78290;SDS011;67543;45.494;9.100;2023-04-03T19:43:59;3.40;;;1.88;;
78290;SDS011;67543;45.494;9.100;2023-04-03T19:46:27;5.30;;;2.22;;
78290;SDS011;67543;45.494;9.100;2023-04-03T19:48:53;1.75;;;1.40;;
78290;SDS011;67543;45.494;9.100;2023-04-03T19:51:19;1.42;;;1.30;;
78290;SDS011;67543;45.494;9.100;2023-04-03T19:53:44;5.03;;;1.85;;
78290;SDS011;67543;45.494;9.100;2023-04-03T19:56:11;3.78;;;2.00;;
78290;SDS011;67543;45.494;9.100;2023-04-03T19:58:37;2.42;;;2.00;;
78290;SDS011;67543;45.494;9.100;2023-04-03T20:01:03;5.90;;;2.60;;
78290;SDS011;67543;45.494;9.100;2023-04-03T20:03:32;2.55;;;1.95;;
78290;SDS011;67543;45.494;9.100;2023-04-03T20:06:00;3.08;;;1.70;;
78290;SDS011;67543;45.494;9.100;2023-04-03T20:08:26;3.58;;;1.65;;
78290;SDS011;67543;45.494;9.100;2023-04-03T20:10:53;2.92;;;1.50;;
78290;SDS011;67543;45.494;9.100;2023-04-03T20:13:19;3.88;;;1.83;;
78290;SDS011;67543;45.494;9.100;2023-04-03T20:15:45;4.05;;;2.33;;
78290;SDS011;67543;45.494;9.100;2023-04-03T20:18:16;2.72;;;1.58;;
78290;SDS011;67543;45.494;9.100;2023-04-03T20:20:44;5.63;;;2.00;;
78290;SDS011;67543;45.494;9.100;2023-04-03T20:23:16;4.13;;;1.48;;
78290;SDS011;67543;45.494;9.100;2023-04-03T20:25:45;2.10;;;1.35;;
78290;SDS011;67543;45.494;9.100;2023-04-03T20:28:14;5.15;;;1.92;;
78290;SDS011;67543;45.494;9.100;2023-04-03T20:30:40;2.80;;;1.88;;
78290;SDS011;67543;45.494;9.100;2023-04-03T20:33:07;3.60;;;1.60;;
78290;SDS011;67543;45.494;9.100;2023-04-03T20:35:32;9.43;;;1.33;;
78290;SDS011;67543;45.494;9.100;2023-04-03T20:37:58;4.40;;;1.92;;
78290;SDS011;67543;45.494;9.100;2023-04-03T20:40:26;2.75;;;1.60;;
78290;SDS011;67543;45.494;9.100;2023-04-03T20:42:52;2.22;;;1.25;;
78290;SDS011;67543;45.494;9.100;2023-04-03T20:45:18;2.78;;;1.50;;
78290;SDS011;67543;45.494;9.100;2023-04-03T20:47:45;3.50;;;1.55;;
78290;SDS011;67543;45.494;9.100;2023-04-03T20:50:11;2.75;;;1.73;;
78290;SDS011;67543;45.494;9.100;2023-04-03T20:52:42;7.05;;;1.80;;
78290;SDS011;67543;45.494;9.100;2023-04-03T20:55:07;2.58;;;1.30;;
78290;SDS011;67543;45.494;9.100;2023-04-03T20:57:36;2.83;;;1.98;;
78290;SDS011;67543;45.494;9.100;2023-04-03T21:00:02;5.10;;;2.15;;
78290;SDS011;67543;45.494;9.100;2023-04-03T21:02:32;2.50;;;1.40;;
78290;SDS011;67543;45.494;9.100;2023-04-03T21:05:01;2.10;;;1.38;;
78290;SDS011;67543;45.494;9.100;2023-04-03T21:19:07;1.47;;;1.37;;
78290;SDS011;67543;45.494;9.100;2023-04-03T21:21:34;5.25;;;1.40;;
78290;SDS011;67543;45.494;9.100;2023-04-03T21:24:03;7.43;;;1.90;;
78290;SDS011;67543;45.494;9.100;2023-04-03T21:26:34;2.33;;;1.52;;
78290;SDS011;67543;45.494;9.100;2023-04-03T21:29:00;2.78;;;1.02;;
78290;SDS011;67543;45.494;9.100;2023-04-03T21:34:15;1.63;;;1.48;;
78290;SDS011;67543;45.494;9.100;2023-04-03T21:36:42;1.88;;;1.58;;
78290;SDS011;67543;45.494;9.100;2023-04-03T21:39:08;2.03;;;1.55;;
78290;SDS011;67543;45.494;9.100;2023-04-03T21:41:33;3.97;;;1.45;;
78290;SDS011;67543;45.494;9.100;2023-04-03T21:43:59;4.35;;;2.05;;
78290;SDS011;67543;45.494;9.100;2023-04-03T21:46:25;3.33;;;1.90;;
78290;SDS011;67543;45.494;9.100;2023-04-03T21:48:52;4.85;;;1.90;;
78290;SDS011;67543;45.494;9.100;2023-04-03T21:51:21;1.83;;;1.70;;
78290;SDS011;67543;45.494;9.100;2023-04-03T21:53:50;3.10;;;1.73;;
78290;SDS011;67543;45.494;9.100;2023-04-03T21:56:19;2.55;;;1.75;;
78290;SDS011;67543;45.494;9.100;2023-04-03T21:58:48;10.07;;;2.72;;
78290;SDS011;67543;45.494;9.100;2023-04-03T22:01:14;3.13;;;2.30;;
78290;SDS011;67543;45.494;9.100;2023-04-03T22:04:18;2.13;;;1.42;;
78290;SDS011;67543;45.494;9.100;2023-04-03T22:06:44;2.17;;;1.35;;